<?xml version="1.0" encoding="UTF-8" standalone="no" ?>
<gpx xmlns="http://www.topografix.com/GPX/1/1" xmlns:xsi="http://www.w3.org/2001/XMLSchema-instance" xsi:schemaLocation="http://www.topografix.com/GPX/1/1 http://www.topografix.com/GPX/1/1/gpx.xsd" version="1.1" creator="VisuGPX - https://www.visugpx.com">
  <metadata>
    <name>Drailles enduros à Pierrefeu</name>
    <desc><![CDATA[Drailles enduros à Pierrefeu]]></desc>
  </metadata>
  <wpt lat="43.20679" lon="6.137">
    <ele>47.6</ele>
    <name><![CDATA[Arrivée de toutes les drailles]]></name>
    <desc><![CDATA[Broussailles]]></desc>
    <cmt><![CDATA[Broussailles]]></cmt>
  </wpt>
  <wpt lat="43.20995" lon="6.14718">
    <ele>209.5</ele>
    <name><![CDATA[Départ de toutes les drailles]]></name>
    <desc><![CDATA[Broussailles]]></desc>
    <cmt><![CDATA[Broussailles]]></cmt>
  </wpt>
  <wpt lat="43.2201" lon="6.14559">
    <ele>57.4</ele>
    <name><![CDATA[SIMPLY MARKET]]></name>
  </wpt>
  <trk>
    <name><![CDATA[Drailles pierrefeu SEBARGOS]]></name>
    <trkseg>
      <trkpt lat="43.21994" lon="6.14595">
        <ele>65.5070801</ele>
        <time>2011-07-03T05:57:23Z</time>
      </trkpt>
      <trkpt lat="43.22009" lon="6.14624">
        <ele>70.3134766</ele>
        <time>2011-07-03T06:03:23Z</time>
      </trkpt>
      <trkpt lat="43.21977" lon="6.14703">
        <ele>68.871582</ele>
        <time>2011-07-03T06:03:53Z</time>
      </trkpt>
      <trkpt lat="43.21924" lon="6.14851">
        <ele>65.0263672</ele>
        <time>2011-07-03T06:04:23Z</time>
      </trkpt>
      <trkpt lat="43.21908" lon="6.14998">
        <ele>63.1036377</ele>
        <time>2011-07-03T06:04:53Z</time>
      </trkpt>
      <trkpt lat="43.21846" lon="6.15028">
        <ele>66.4682617</ele>
        <time>2011-07-03T06:05:23Z</time>
      </trkpt>
      <trkpt lat="43.21871" lon="6.15122">
        <ele>66.4682617</ele>
        <time>2011-07-03T06:05:53Z</time>
      </trkpt>
      <trkpt lat="43.21853" lon="6.15197">
        <ele>63.5843506</ele>
        <time>2011-07-03T06:06:23Z</time>
      </trkpt>
      <trkpt lat="43.21819" lon="6.15256">
        <ele>67.4296875</ele>
        <time>2011-07-03T06:06:53Z</time>
      </trkpt>
      <trkpt lat="43.21773" lon="6.15295">
        <ele>71.7554932</ele>
        <time>2011-07-03T06:07:23Z</time>
      </trkpt>
      <trkpt lat="43.21716" lon="6.15312">
        <ele>77.0428467</ele>
        <time>2011-07-03T06:07:53Z</time>
      </trkpt>
      <trkpt lat="43.21654" lon="6.15308">
        <ele>79.9266357</ele>
        <time>2011-07-03T06:08:23Z</time>
      </trkpt>
      <trkpt lat="43.21594" lon="6.15308">
        <ele>82.3300781</ele>
        <time>2011-07-03T06:08:53Z</time>
      </trkpt>
      <trkpt lat="43.21538" lon="6.15304">
        <ele>85.2139893</ele>
        <time>2011-07-03T06:09:23Z</time>
      </trkpt>
      <trkpt lat="43.21478" lon="6.15301">
        <ele>87.6171875</ele>
        <time>2011-07-03T06:09:53Z</time>
      </trkpt>
      <trkpt lat="43.21445" lon="6.15256">
        <ele>89.539917</ele>
        <time>2011-07-03T06:10:23Z</time>
      </trkpt>
      <trkpt lat="43.21461" lon="6.15179">
        <ele>90.5013428</ele>
        <time>2011-07-03T06:10:53Z</time>
      </trkpt>
      <trkpt lat="43.21431" lon="6.15133">
        <ele>93.3851318</ele>
        <time>2011-07-03T06:11:23Z</time>
      </trkpt>
      <trkpt lat="43.21396" lon="6.15128">
        <ele>102.5177002</ele>
        <time>2011-07-03T06:11:53Z</time>
      </trkpt>
      <trkpt lat="43.21381" lon="6.15093">
        <ele>109.7276611</ele>
        <time>2011-07-03T06:12:23Z</time>
      </trkpt>
      <trkpt lat="43.21405" lon="6.15026">
        <ele>115.9761963</ele>
        <time>2011-07-03T06:12:53Z</time>
      </trkpt>
      <trkpt lat="43.21444" lon="6.1488">
        <ele>118.8601074</ele>
        <time>2011-07-03T06:13:23Z</time>
      </trkpt>
      <trkpt lat="43.21443" lon="6.14856">
        <ele>121.2635498</ele>
        <time>2011-07-03T06:13:53Z</time>
      </trkpt>
      <trkpt lat="43.21423" lon="6.14891">
        <ele>128.9541016</ele>
        <time>2011-07-03T06:14:23Z</time>
      </trkpt>
      <trkpt lat="43.21395" lon="6.14922">
        <ele>138.5672607</ele>
        <time>2011-07-03T06:14:53Z</time>
      </trkpt>
      <trkpt lat="43.21379" lon="6.14969">
        <ele>145.7770996</ele>
        <time>2011-07-03T06:15:23Z</time>
      </trkpt>
      <trkpt lat="43.2135" lon="6.15002">
        <ele>149.6223145</ele>
        <time>2011-07-03T06:15:53Z</time>
      </trkpt>
      <trkpt lat="43.21313" lon="6.15022">
        <ele>152.9869385</ele>
        <time>2011-07-03T06:16:23Z</time>
      </trkpt>
      <trkpt lat="43.21265" lon="6.15031">
        <ele>157.7935791</ele>
        <time>2011-07-03T06:16:53Z</time>
      </trkpt>
      <trkpt lat="43.21218" lon="6.15054">
        <ele>164.5227051</ele>
        <time>2011-07-03T06:17:23Z</time>
      </trkpt>
      <trkpt lat="43.21221" lon="6.15119">
        <ele>168.368042</ele>
        <time>2011-07-03T06:17:53Z</time>
      </trkpt>
      <trkpt lat="43.2122" lon="6.15183">
        <ele>170.7713623</ele>
        <time>2011-07-03T06:18:23Z</time>
      </trkpt>
      <trkpt lat="43.21196" lon="6.15242">
        <ele>177.0200195</ele>
        <time>2011-07-03T06:18:53Z</time>
      </trkpt>
      <trkpt lat="43.21167" lon="6.15298">
        <ele>188.0750732</ele>
        <time>2011-07-03T06:19:23Z</time>
      </trkpt>
      <trkpt lat="43.21133" lon="6.15351">
        <ele>195.2849121</ele>
        <time>2011-07-03T06:19:53Z</time>
      </trkpt>
      <trkpt lat="43.21085" lon="6.15388">
        <ele>198.1689453</ele>
        <time>2011-07-03T06:20:23Z</time>
      </trkpt>
      <trkpt lat="43.21041" lon="6.15383">
        <ele>196.7269287</ele>
        <time>2011-07-03T06:20:53Z</time>
      </trkpt>
      <trkpt lat="43.21019" lon="6.15297">
        <ele>191.9202881</ele>
        <time>2011-07-03T06:21:23Z</time>
      </trkpt>
      <trkpt lat="43.20993" lon="6.15199">
        <ele>189.9976807</ele>
        <time>2011-07-03T06:21:53Z</time>
      </trkpt>
      <trkpt lat="43.21015" lon="6.15083">
        <ele>189.9976807</ele>
        <time>2011-07-03T06:22:23Z</time>
      </trkpt>
      <trkpt lat="43.20995" lon="6.14951">
        <ele>185.6717529</ele>
        <time>2011-07-03T06:22:53Z</time>
      </trkpt>
      <trkpt lat="43.2096" lon="6.14871">
        <ele>181.3458252</ele>
        <time>2011-07-03T06:23:23Z</time>
      </trkpt>
      <trkpt lat="43.20974" lon="6.14849">
        <ele>187.1137695</ele>
        <time>2011-07-03T06:23:53Z</time>
      </trkpt>
      <trkpt lat="43.20984" lon="6.14829">
        <ele>195.2849121</ele>
        <time>2011-07-03T06:24:23Z</time>
      </trkpt>
      <trkpt lat="43.20993" lon="6.14812">
        <ele>200.5722656</ele>
        <time>2011-07-03T06:24:53Z</time>
      </trkpt>
      <trkpt lat="43.21001" lon="6.14793">
        <ele>204.8980713</ele>
        <time>2011-07-03T06:25:23Z</time>
      </trkpt>
      <trkpt lat="43.21018" lon="6.14791">
        <ele>208.2628174</ele>
        <time>2011-07-03T06:25:53Z</time>
      </trkpt>
      <trkpt lat="43.21018" lon="6.14791">
        <ele>208.2628174</ele>
        <time>2011-07-03T06:26:23Z</time>
      </trkpt>
      <trkpt lat="43.21011" lon="6.1478">
        <ele>208.7434082</ele>
        <time>2011-07-03T06:26:53Z</time>
      </trkpt>
      <trkpt lat="43.21007" lon="6.14756">
        <ele>212.1080322</ele>
        <time>2011-07-03T06:27:23Z</time>
      </trkpt>
      <trkpt lat="43.21" lon="6.14736">
        <ele>215.9532471</ele>
        <time>2011-07-03T06:27:53Z</time>
      </trkpt>
      <trkpt lat="43.20992" lon="6.14726">
        <ele>218.3565674</ele>
        <time>2011-07-03T06:28:23Z</time>
      </trkpt>
      <trkpt lat="43.20992" lon="6.14725">
        <ele>218.8372803</ele>
        <time>2011-07-03T06:28:53Z</time>
      </trkpt>
      <trkpt lat="43.20993" lon="6.14722">
        <ele>218.8372803</ele>
        <time>2011-07-03T06:29:23Z</time>
      </trkpt>
      <trkpt lat="43.20993" lon="6.14722">
        <ele>218.3565674</ele>
        <time>2011-07-03T06:29:53Z</time>
      </trkpt>
      <trkpt lat="43.20993" lon="6.14722">
        <ele>218.3565674</ele>
        <time>2011-07-03T06:30:23Z</time>
      </trkpt>
      <trkpt lat="43.20994" lon="6.14721">
        <ele>218.3565674</ele>
        <time>2011-07-03T06:30:53Z</time>
      </trkpt>
      <trkpt lat="43.20994" lon="6.14721">
        <ele>218.3565674</ele>
        <time>2011-07-03T06:31:23Z</time>
      </trkpt>
      <trkpt lat="43.20994" lon="6.14721">
        <ele>218.3565674</ele>
        <time>2011-07-03T06:31:53Z</time>
      </trkpt>
      <trkpt lat="43.20972" lon="6.14712">
        <ele>219.3179932</ele>
        <time>2011-07-03T06:32:23Z</time>
      </trkpt>
      <trkpt lat="43.20961" lon="6.14694">
        <ele>220.2791748</ele>
        <time>2011-07-03T06:32:53Z</time>
      </trkpt>
      <trkpt lat="43.20882" lon="6.1456">
        <ele>208.2628174</ele>
        <time>2011-07-03T06:33:23Z</time>
      </trkpt>
      <trkpt lat="43.20802" lon="6.14473">
        <ele>203.9368896</ele>
        <time>2011-07-03T06:33:53Z</time>
      </trkpt>
      <trkpt lat="43.208" lon="6.1447">
        <ele>203.9368896</ele>
        <time>2011-07-03T06:34:23Z</time>
      </trkpt>
      <trkpt lat="43.2079" lon="6.14447">
        <ele>198.6495361</ele>
        <time>2011-07-03T06:34:53Z</time>
      </trkpt>
      <trkpt lat="43.20728" lon="6.14383">
        <ele>173.6552734</ele>
        <time>2011-07-03T06:35:23Z</time>
      </trkpt>
      <trkpt lat="43.20741" lon="6.14298">
        <ele>165.003418</ele>
        <time>2011-07-03T06:35:53Z</time>
      </trkpt>
      <trkpt lat="43.20751" lon="6.142">
        <ele>150.1030273</ele>
        <time>2011-07-03T06:36:23Z</time>
      </trkpt>
      <trkpt lat="43.20766" lon="6.14149">
        <ele>124.6280518</ele>
        <time>2011-07-03T06:36:53Z</time>
      </trkpt>
      <trkpt lat="43.20767" lon="6.14148">
        <ele>115.9761963</ele>
        <time>2011-07-03T06:37:23Z</time>
      </trkpt>
      <trkpt lat="43.20766" lon="6.14147">
        <ele>116.4567871</ele>
        <time>2011-07-03T06:37:53Z</time>
      </trkpt>
      <trkpt lat="43.20766" lon="6.14147">
        <ele>116.4567871</ele>
        <time>2011-07-03T06:38:23Z</time>
      </trkpt>
      <trkpt lat="43.20766" lon="6.14147">
        <ele>116.4567871</ele>
        <time>2011-07-03T06:38:53Z</time>
      </trkpt>
      <trkpt lat="43.20766" lon="6.14147">
        <ele>116.4567871</ele>
        <time>2011-07-03T06:39:23Z</time>
      </trkpt>
      <trkpt lat="43.20766" lon="6.14147">
        <ele>116.4567871</ele>
        <time>2011-07-03T06:39:53Z</time>
      </trkpt>
      <trkpt lat="43.20766" lon="6.14146">
        <ele>116.9375</ele>
        <time>2011-07-03T06:40:23Z</time>
      </trkpt>
      <trkpt lat="43.20766" lon="6.14146">
        <ele>116.9375</ele>
        <time>2011-07-03T06:40:53Z</time>
      </trkpt>
      <trkpt lat="43.20766" lon="6.14147">
        <ele>116.9375</ele>
        <time>2011-07-03T06:41:23Z</time>
      </trkpt>
      <trkpt lat="43.20767" lon="6.14146">
        <ele>116.9375</ele>
        <time>2011-07-03T06:41:53Z</time>
      </trkpt>
      <trkpt lat="43.20767" lon="6.14146">
        <ele>116.4567871</ele>
        <time>2011-07-03T06:42:23Z</time>
      </trkpt>
      <trkpt lat="43.20776" lon="6.14145">
        <ele>116.9375</ele>
        <time>2011-07-03T06:42:53Z</time>
      </trkpt>
      <trkpt lat="43.20795" lon="6.14091">
        <ele>104.9210205</ele>
        <time>2011-07-03T06:43:23Z</time>
      </trkpt>
      <trkpt lat="43.20721" lon="6.1397">
        <ele>96.7498779</ele>
        <time>2011-07-03T06:43:53Z</time>
      </trkpt>
      <trkpt lat="43.20643" lon="6.1388">
        <ele>91.9432373</ele>
        <time>2011-07-03T06:44:23Z</time>
      </trkpt>
      <trkpt lat="43.20655" lon="6.13846">
        <ele>91.4625244</ele>
        <time>2011-07-03T06:44:54Z</time>
      </trkpt>
      <trkpt lat="43.20667" lon="6.13762">
        <ele>84.2526855</ele>
        <time>2011-07-03T06:45:24Z</time>
      </trkpt>
      <trkpt lat="43.20668" lon="6.13744">
        <ele>81.3687744</ele>
        <time>2011-07-03T06:45:54Z</time>
      </trkpt>
      <trkpt lat="43.20674" lon="6.13702">
        <ele>77.0428467</ele>
        <time>2011-07-03T06:46:24Z</time>
      </trkpt>
      <trkpt lat="43.20673" lon="6.13703">
        <ele>75.1202393</ele>
        <time>2011-07-03T06:46:54Z</time>
      </trkpt>
      <trkpt lat="43.20666" lon="6.13704">
        <ele>69.8328857</ele>
        <time>2011-07-03T06:47:24Z</time>
      </trkpt>
      <trkpt lat="43.20617" lon="6.13717">
        <ele>68.3908691</ele>
        <time>2011-07-03T06:47:54Z</time>
      </trkpt>
      <trkpt lat="43.20567" lon="6.13763">
        <ele>75.6008301</ele>
        <time>2011-07-03T06:48:24Z</time>
      </trkpt>
      <trkpt lat="43.20549" lon="6.13815">
        <ele>87.1365967</ele>
        <time>2011-07-03T06:48:54Z</time>
      </trkpt>
      <trkpt lat="43.20508" lon="6.13792">
        <ele>92.904541</ele>
        <time>2011-07-03T06:49:24Z</time>
      </trkpt>
      <trkpt lat="43.20457" lon="6.13803">
        <ele>95.7884521</ele>
        <time>2011-07-03T06:49:54Z</time>
      </trkpt>
      <trkpt lat="43.20404" lon="6.13821">
        <ele>95.7884521</ele>
        <time>2011-07-03T06:50:24Z</time>
      </trkpt>
      <trkpt lat="43.20394" lon="6.13878">
        <ele>97.2304688</ele>
        <time>2011-07-03T06:50:54Z</time>
      </trkpt>
      <trkpt lat="43.20442" lon="6.13899">
        <ele>96.7498779</ele>
        <time>2011-07-03T06:51:24Z</time>
      </trkpt>
      <trkpt lat="43.20481" lon="6.13941">
        <ele>102.998291</ele>
        <time>2011-07-03T06:51:54Z</time>
      </trkpt>
      <trkpt lat="43.20525" lon="6.13981">
        <ele>105.8824463</ele>
        <time>2011-07-03T06:52:24Z</time>
      </trkpt>
      <trkpt lat="43.20572" lon="6.14018">
        <ele>107.8050537</ele>
        <time>2011-07-03T06:52:54Z</time>
      </trkpt>
      <trkpt lat="43.20611" lon="6.14063">
        <ele>111.1695557</ele>
        <time>2011-07-03T06:53:24Z</time>
      </trkpt>
      <trkpt lat="43.20626" lon="6.14123">
        <ele>115.9761963</ele>
        <time>2011-07-03T06:53:54Z</time>
      </trkpt>
      <trkpt lat="43.20634" lon="6.14194">
        <ele>122.2247314</ele>
        <time>2011-07-03T06:54:24Z</time>
      </trkpt>
      <trkpt lat="43.20649" lon="6.14269">
        <ele>128.4733887</ele>
        <time>2011-07-03T06:54:54Z</time>
      </trkpt>
      <trkpt lat="43.2065" lon="6.14343">
        <ele>133.760498</ele>
        <time>2011-07-03T06:55:24Z</time>
      </trkpt>
      <trkpt lat="43.20617" lon="6.144">
        <ele>138.0865479</ele>
        <time>2011-07-03T06:55:54Z</time>
      </trkpt>
      <trkpt lat="43.20559" lon="6.14401">
        <ele>140.0091553</ele>
        <time>2011-07-03T06:56:24Z</time>
      </trkpt>
      <trkpt lat="43.20561" lon="6.14457">
        <ele>140.0091553</ele>
        <time>2011-07-03T06:56:54Z</time>
      </trkpt>
      <trkpt lat="43.20615" lon="6.14475">
        <ele>141.4510498</ele>
        <time>2011-07-03T06:57:24Z</time>
      </trkpt>
      <trkpt lat="43.20658" lon="6.14523">
        <ele>143.3736572</ele>
        <time>2011-07-03T06:57:54Z</time>
      </trkpt>
      <trkpt lat="43.20693" lon="6.14581">
        <ele>148.6610107</ele>
        <time>2011-07-03T06:58:24Z</time>
      </trkpt>
      <trkpt lat="43.20747" lon="6.14605">
        <ele>153.9483643</ele>
        <time>2011-07-03T06:58:54Z</time>
      </trkpt>
      <trkpt lat="43.20793" lon="6.14629">
        <ele>158.2741699</ele>
        <time>2011-07-03T06:59:24Z</time>
      </trkpt>
      <trkpt lat="43.20818" lon="6.1469">
        <ele>161.638916</ele>
        <time>2011-07-03T06:59:54Z</time>
      </trkpt>
      <trkpt lat="43.2084" lon="6.14757">
        <ele>164.5227051</ele>
        <time>2011-07-03T07:00:24Z</time>
      </trkpt>
      <trkpt lat="43.20884" lon="6.14808">
        <ele>170.2906494</ele>
        <time>2011-07-03T07:00:54Z</time>
      </trkpt>
      <trkpt lat="43.20939" lon="6.14843">
        <ele>173.6552734</ele>
        <time>2011-07-03T07:01:24Z</time>
      </trkpt>
      <trkpt lat="43.2096" lon="6.14859">
        <ele>175.09729</ele>
        <time>2011-07-03T07:01:54Z</time>
      </trkpt>
      <trkpt lat="43.2096" lon="6.14859">
        <ele>174.6165771</ele>
        <time>2011-07-03T07:02:24Z</time>
      </trkpt>
      <trkpt lat="43.20962" lon="6.14857">
        <ele>175.09729</ele>
        <time>2011-07-03T07:02:54Z</time>
      </trkpt>
      <trkpt lat="43.20973" lon="6.14851">
        <ele>180.3845215</ele>
        <time>2011-07-03T07:03:24Z</time>
      </trkpt>
      <trkpt lat="43.20981" lon="6.14837">
        <ele>184.7105713</ele>
        <time>2011-07-03T07:03:54Z</time>
      </trkpt>
      <trkpt lat="43.20988" lon="6.14826">
        <ele>188.5557861</ele>
        <time>2011-07-03T07:04:24Z</time>
      </trkpt>
      <trkpt lat="43.20994" lon="6.14807">
        <ele>192.8817139</ele>
        <time>2011-07-03T07:04:54Z</time>
      </trkpt>
      <trkpt lat="43.21005" lon="6.14794">
        <ele>197.2075195</ele>
        <time>2011-07-03T07:05:24Z</time>
      </trkpt>
      <trkpt lat="43.21016" lon="6.14781">
        <ele>201.0528564</ele>
        <time>2011-07-03T07:05:54Z</time>
      </trkpt>
      <trkpt lat="43.21007" lon="6.14762">
        <ele>205.3787842</ele>
        <time>2011-07-03T07:06:24Z</time>
      </trkpt>
      <trkpt lat="43.21007" lon="6.14751">
        <ele>208.7434082</ele>
        <time>2011-07-03T07:06:54Z</time>
      </trkpt>
      <trkpt lat="43.20997" lon="6.14727">
        <ele>213.5500488</ele>
        <time>2011-07-03T07:07:24Z</time>
      </trkpt>
      <trkpt lat="43.20994" lon="6.14724">
        <ele>214.0306396</ele>
        <time>2011-07-03T07:07:55Z</time>
      </trkpt>
      <trkpt lat="43.20994" lon="6.14724">
        <ele>213.5500488</ele>
        <time>2011-07-03T07:08:25Z</time>
      </trkpt>
      <trkpt lat="43.20993" lon="6.14721">
        <ele>214.0306396</ele>
        <time>2011-07-03T07:08:55Z</time>
      </trkpt>
      <trkpt lat="43.20967" lon="6.14592">
        <ele>194.8043213</ele>
        <time>2011-07-03T07:09:25Z</time>
      </trkpt>
      <trkpt lat="43.20925" lon="6.1448">
        <ele>169.8100586</ele>
        <time>2011-07-03T07:09:55Z</time>
      </trkpt>
      <trkpt lat="43.20916" lon="6.14437">
        <ele>153.4676514</ele>
        <time>2011-07-03T07:10:25Z</time>
      </trkpt>
      <trkpt lat="43.20916" lon="6.1443">
        <ele>150.1030273</ele>
        <time>2011-07-03T07:10:55Z</time>
      </trkpt>
      <trkpt lat="43.20834" lon="6.14213">
        <ele>130.3959961</ele>
        <time>2011-07-03T07:11:25Z</time>
      </trkpt>
      <trkpt lat="43.20828" lon="6.14204">
        <ele>122.7054443</ele>
        <time>2011-07-03T07:11:55Z</time>
      </trkpt>
      <trkpt lat="43.20828" lon="6.14204">
        <ele>122.7054443</ele>
        <time>2011-07-03T07:12:25Z</time>
      </trkpt>
      <trkpt lat="43.20836" lon="6.14201">
        <ele>122.7054443</ele>
        <time>2011-07-03T07:12:55Z</time>
      </trkpt>
      <trkpt lat="43.20847" lon="6.1419">
        <ele>115.0148926</ele>
        <time>2011-07-03T07:13:25Z</time>
      </trkpt>
      <trkpt lat="43.20832" lon="6.14091">
        <ele>104.4404297</ele>
        <time>2011-07-03T07:13:55Z</time>
      </trkpt>
      <trkpt lat="43.20816" lon="6.13972">
        <ele>88.5787354</ele>
        <time>2011-07-03T07:14:25Z</time>
      </trkpt>
      <trkpt lat="43.20777" lon="6.1386">
        <ele>73.6782227</ele>
        <time>2011-07-03T07:14:55Z</time>
      </trkpt>
      <trkpt lat="43.20737" lon="6.1378">
        <ele>64.5456543</ele>
        <time>2011-07-03T07:15:25Z</time>
      </trkpt>
      <trkpt lat="43.20724" lon="6.13754">
        <ele>59.7391357</ele>
        <time>2011-07-03T07:15:55Z</time>
      </trkpt>
      <trkpt lat="43.20724" lon="6.13754">
        <ele>59.2584229</ele>
        <time>2011-07-03T07:16:25Z</time>
      </trkpt>
      <trkpt lat="43.20711" lon="6.13732">
        <ele>55.4130859</ele>
        <time>2011-07-03T07:16:55Z</time>
      </trkpt>
      <trkpt lat="43.20711" lon="6.13733">
        <ele>54.4517822</ele>
        <time>2011-07-03T07:17:25Z</time>
      </trkpt>
      <trkpt lat="43.20711" lon="6.13733">
        <ele>54.4517822</ele>
        <time>2011-07-03T07:17:55Z</time>
      </trkpt>
      <trkpt lat="43.20711" lon="6.13733">
        <ele>53.9711914</ele>
        <time>2011-07-03T07:18:25Z</time>
      </trkpt>
      <trkpt lat="43.20711" lon="6.13733">
        <ele>53.9711914</ele>
        <time>2011-07-03T07:18:55Z</time>
      </trkpt>
      <trkpt lat="43.20711" lon="6.13734">
        <ele>52.048584</ele>
        <time>2011-07-03T07:19:25Z</time>
      </trkpt>
      <trkpt lat="43.2071" lon="6.13734">
        <ele>52.5291748</ele>
        <time>2011-07-03T07:19:55Z</time>
      </trkpt>
      <trkpt lat="43.2071" lon="6.13734">
        <ele>52.5291748</ele>
        <time>2011-07-03T07:20:25Z</time>
      </trkpt>
      <trkpt lat="43.2071" lon="6.13734">
        <ele>52.5291748</ele>
        <time>2011-07-03T07:20:55Z</time>
      </trkpt>
      <trkpt lat="43.2071" lon="6.13734">
        <ele>52.048584</ele>
        <time>2011-07-03T07:21:25Z</time>
      </trkpt>
      <trkpt lat="43.20709" lon="6.13734">
        <ele>52.048584</ele>
        <time>2011-07-03T07:21:55Z</time>
      </trkpt>
      <trkpt lat="43.20709" lon="6.13734">
        <ele>52.048584</ele>
        <time>2011-07-03T07:22:25Z</time>
      </trkpt>
      <trkpt lat="43.20709" lon="6.13734">
        <ele>52.048584</ele>
        <time>2011-07-03T07:22:55Z</time>
      </trkpt>
      <trkpt lat="43.20709" lon="6.13734">
        <ele>52.048584</ele>
        <time>2011-07-03T07:23:25Z</time>
      </trkpt>
      <trkpt lat="43.20709" lon="6.13734">
        <ele>52.048584</ele>
        <time>2011-07-03T07:23:55Z</time>
      </trkpt>
      <trkpt lat="43.20709" lon="6.13734">
        <ele>52.048584</ele>
        <time>2011-07-03T07:24:25Z</time>
      </trkpt>
      <trkpt lat="43.20709" lon="6.13734">
        <ele>52.048584</ele>
        <time>2011-07-03T07:24:55Z</time>
      </trkpt>
      <trkpt lat="43.20709" lon="6.13734">
        <ele>52.048584</ele>
        <time>2011-07-03T07:25:25Z</time>
      </trkpt>
      <trkpt lat="43.20706" lon="6.13729">
        <ele>53.0097656</ele>
        <time>2011-07-03T07:25:55Z</time>
      </trkpt>
      <trkpt lat="43.20696" lon="6.13725">
        <ele>55.8937988</ele>
        <time>2011-07-03T07:26:25Z</time>
      </trkpt>
      <trkpt lat="43.20681" lon="6.13712">
        <ele>60.7003174</ele>
        <time>2011-07-03T07:26:55Z</time>
      </trkpt>
      <trkpt lat="43.20674" lon="6.13708">
        <ele>61.1810303</ele>
        <time>2011-07-03T07:27:25Z</time>
      </trkpt>
      <trkpt lat="43.20643" lon="6.13705">
        <ele>63.5843506</ele>
        <time>2011-07-03T07:27:55Z</time>
      </trkpt>
      <trkpt lat="43.2059" lon="6.13728">
        <ele>71.7554932</ele>
        <time>2011-07-03T07:28:25Z</time>
      </trkpt>
      <trkpt lat="43.20559" lon="6.13776">
        <ele>82.3300781</ele>
        <time>2011-07-03T07:28:55Z</time>
      </trkpt>
      <trkpt lat="43.20538" lon="6.138">
        <ele>89.539917</ele>
        <time>2011-07-03T07:29:25Z</time>
      </trkpt>
      <trkpt lat="43.20483" lon="6.13793">
        <ele>94.8271484</ele>
        <time>2011-07-03T07:29:55Z</time>
      </trkpt>
      <trkpt lat="43.20428" lon="6.13805">
        <ele>100.114502</ele>
        <time>2011-07-03T07:30:25Z</time>
      </trkpt>
      <trkpt lat="43.2038" lon="6.13845">
        <ele>100.114502</ele>
        <time>2011-07-03T07:30:55Z</time>
      </trkpt>
      <trkpt lat="43.20411" lon="6.13894">
        <ele>99.1530762</ele>
        <time>2011-07-03T07:31:25Z</time>
      </trkpt>
      <trkpt lat="43.20454" lon="6.1392">
        <ele>99.6337891</ele>
        <time>2011-07-03T07:31:55Z</time>
      </trkpt>
      <trkpt lat="43.20496" lon="6.13962">
        <ele>102.0371094</ele>
        <time>2011-07-03T07:32:25Z</time>
      </trkpt>
      <trkpt lat="43.20542" lon="6.13999">
        <ele>104.4404297</ele>
        <time>2011-07-03T07:32:55Z</time>
      </trkpt>
      <trkpt lat="43.20586" lon="6.14042">
        <ele>108.7662354</ele>
        <time>2011-07-03T07:33:25Z</time>
      </trkpt>
      <trkpt lat="43.2062" lon="6.14095">
        <ele>113.572998</ele>
        <time>2011-07-03T07:33:55Z</time>
      </trkpt>
      <trkpt lat="43.20624" lon="6.14168">
        <ele>118.3793945</ele>
        <time>2011-07-03T07:34:25Z</time>
      </trkpt>
      <trkpt lat="43.20637" lon="6.14242">
        <ele>121.7441406</ele>
        <time>2011-07-03T07:34:55Z</time>
      </trkpt>
      <trkpt lat="43.20646" lon="6.14314">
        <ele>125.1087646</ele>
        <time>2011-07-03T07:35:25Z</time>
      </trkpt>
      <trkpt lat="43.20634" lon="6.14384">
        <ele>128.9541016</ele>
        <time>2011-07-03T07:35:55Z</time>
      </trkpt>
      <trkpt lat="43.20587" lon="6.14404">
        <ele>135.2025146</ele>
        <time>2011-07-03T07:36:25Z</time>
      </trkpt>
      <trkpt lat="43.20539" lon="6.14427">
        <ele>136.6446533</ele>
        <time>2011-07-03T07:36:55Z</time>
      </trkpt>
      <trkpt lat="43.20581" lon="6.14481">
        <ele>140.0091553</ele>
        <time>2011-07-03T07:37:25Z</time>
      </trkpt>
      <trkpt lat="43.20638" lon="6.14502">
        <ele>141.4510498</ele>
        <time>2011-07-03T07:37:55Z</time>
      </trkpt>
      <trkpt lat="43.20677" lon="6.14564">
        <ele>147.2189941</ele>
        <time>2011-07-03T07:38:25Z</time>
      </trkpt>
      <trkpt lat="43.20729" lon="6.14607">
        <ele>151.064209</ele>
        <time>2011-07-03T07:38:55Z</time>
      </trkpt>
      <trkpt lat="43.20786" lon="6.14622">
        <ele>155.3902588</ele>
        <time>2011-07-03T07:39:25Z</time>
      </trkpt>
      <trkpt lat="43.20817" lon="6.1469">
        <ele>160.1968994</ele>
        <time>2011-07-03T07:39:55Z</time>
      </trkpt>
      <trkpt lat="43.20843" lon="6.1476">
        <ele>166.4453125</ele>
        <time>2011-07-03T07:40:25Z</time>
      </trkpt>
      <trkpt lat="43.2089" lon="6.14815">
        <ele>174.1358643</ele>
        <time>2011-07-03T07:40:55Z</time>
      </trkpt>
      <trkpt lat="43.20945" lon="6.14849">
        <ele>174.6165771</ele>
        <time>2011-07-03T07:41:25Z</time>
      </trkpt>
      <trkpt lat="43.20957" lon="6.14854">
        <ele>174.6165771</ele>
        <time>2011-07-03T07:41:55Z</time>
      </trkpt>
      <trkpt lat="43.20957" lon="6.14854">
        <ele>174.6165771</ele>
        <time>2011-07-03T07:42:25Z</time>
      </trkpt>
      <trkpt lat="43.20957" lon="6.14854">
        <ele>174.6165771</ele>
        <time>2011-07-03T07:42:55Z</time>
      </trkpt>
      <trkpt lat="43.20957" lon="6.14854">
        <ele>174.6165771</ele>
        <time>2011-07-03T07:43:25Z</time>
      </trkpt>
      <trkpt lat="43.20958" lon="6.14853">
        <ele>174.6165771</ele>
        <time>2011-07-03T07:43:55Z</time>
      </trkpt>
      <trkpt lat="43.20962" lon="6.14856">
        <ele>175.09729</ele>
        <time>2011-07-03T07:44:25Z</time>
      </trkpt>
      <trkpt lat="43.20971" lon="6.14851">
        <ele>175.5778809</ele>
        <time>2011-07-03T07:44:55Z</time>
      </trkpt>
      <trkpt lat="43.20979" lon="6.14841">
        <ele>179.4232178</ele>
        <time>2011-07-03T07:45:25Z</time>
      </trkpt>
      <trkpt lat="43.20986" lon="6.14827">
        <ele>184.7105713</ele>
        <time>2011-07-03T07:45:55Z</time>
      </trkpt>
      <trkpt lat="43.20993" lon="6.14811">
        <ele>192.8817139</ele>
        <time>2011-07-03T07:46:25Z</time>
      </trkpt>
      <trkpt lat="43.20997" lon="6.14797">
        <ele>196.2463379</ele>
        <time>2011-07-03T07:46:55Z</time>
      </trkpt>
      <trkpt lat="43.21007" lon="6.14793">
        <ele>200.0916748</ele>
        <time>2011-07-03T07:47:25Z</time>
      </trkpt>
      <trkpt lat="43.2101" lon="6.14778">
        <ele>205.3787842</ele>
        <time>2011-07-03T07:47:55Z</time>
      </trkpt>
      <trkpt lat="43.21009" lon="6.14754">
        <ele>210.6660156</ele>
        <time>2011-07-03T07:48:25Z</time>
      </trkpt>
      <trkpt lat="43.20998" lon="6.14729">
        <ele>215.4726563</ele>
        <time>2011-07-03T07:48:55Z</time>
      </trkpt>
      <trkpt lat="43.20992" lon="6.14721">
        <ele>218.3565674</ele>
        <time>2011-07-03T07:49:25Z</time>
      </trkpt>
      <trkpt lat="43.20991" lon="6.14722">
        <ele>219.3179932</ele>
        <time>2011-07-03T07:49:55Z</time>
      </trkpt>
      <trkpt lat="43.20992" lon="6.1472">
        <ele>219.3179932</ele>
        <time>2011-07-03T07:50:25Z</time>
      </trkpt>
      <trkpt lat="43.20955" lon="6.14686">
        <ele>218.8372803</ele>
        <time>2011-07-03T07:50:55Z</time>
      </trkpt>
      <trkpt lat="43.20876" lon="6.14549">
        <ele>200.5722656</ele>
        <time>2011-07-03T07:51:25Z</time>
      </trkpt>
      <trkpt lat="43.2081" lon="6.14481">
        <ele>196.7269287</ele>
        <time>2011-07-03T07:51:55Z</time>
      </trkpt>
      <trkpt lat="43.2081" lon="6.1448">
        <ele>196.2463379</ele>
        <time>2011-07-03T07:52:25Z</time>
      </trkpt>
      <trkpt lat="43.20788" lon="6.14443">
        <ele>189.5169678</ele>
        <time>2011-07-03T07:52:55Z</time>
      </trkpt>
      <trkpt lat="43.20787" lon="6.14442">
        <ele>187.1137695</ele>
        <time>2011-07-03T07:53:25Z</time>
      </trkpt>
      <trkpt lat="43.2079" lon="6.1445">
        <ele>189.5169678</ele>
        <time>2011-07-03T07:53:55Z</time>
      </trkpt>
      <trkpt lat="43.20789" lon="6.1445">
        <ele>189.5169678</ele>
        <time>2011-07-03T07:54:25Z</time>
      </trkpt>
      <trkpt lat="43.20789" lon="6.14451">
        <ele>189.5169678</ele>
        <time>2011-07-03T07:54:55Z</time>
      </trkpt>
      <trkpt lat="43.20789" lon="6.14451">
        <ele>189.5169678</ele>
        <time>2011-07-03T07:55:25Z</time>
      </trkpt>
      <trkpt lat="43.2079" lon="6.14449">
        <ele>190.4783936</ele>
        <time>2011-07-03T07:55:55Z</time>
      </trkpt>
      <trkpt lat="43.20796" lon="6.14464">
        <ele>196.7269287</ele>
        <time>2011-07-03T07:56:25Z</time>
      </trkpt>
      <trkpt lat="43.20788" lon="6.14446">
        <ele>191.4395752</ele>
        <time>2011-07-03T07:56:55Z</time>
      </trkpt>
      <trkpt lat="43.20788" lon="6.14447">
        <ele>191.4395752</ele>
        <time>2011-07-03T07:57:25Z</time>
      </trkpt>
      <trkpt lat="43.20788" lon="6.14447">
        <ele>191.4395752</ele>
        <time>2011-07-03T07:57:55Z</time>
      </trkpt>
      <trkpt lat="43.20793" lon="6.14462">
        <ele>192.401123</ele>
        <time>2011-07-03T07:58:25Z</time>
      </trkpt>
      <trkpt lat="43.20801" lon="6.1447">
        <ele>195.765625</ele>
        <time>2011-07-03T07:58:55Z</time>
      </trkpt>
      <trkpt lat="43.20744" lon="6.14408">
        <ele>172.2132568</ele>
        <time>2011-07-03T07:59:25Z</time>
      </trkpt>
      <trkpt lat="43.20744" lon="6.14412">
        <ele>165.4841309</ele>
        <time>2011-07-03T07:59:55Z</time>
      </trkpt>
      <trkpt lat="43.2073" lon="6.14393">
        <ele>162.6000977</ele>
        <time>2011-07-03T08:00:25Z</time>
      </trkpt>
      <trkpt lat="43.20727" lon="6.14389">
        <ele>162.1195068</ele>
        <time>2011-07-03T08:00:55Z</time>
      </trkpt>
      <trkpt lat="43.20729" lon="6.14335">
        <ele>157.3128662</ele>
        <time>2011-07-03T08:01:25Z</time>
      </trkpt>
      <trkpt lat="43.20746" lon="6.14233">
        <ele>149.6223145</ele>
        <time>2011-07-03T08:01:55Z</time>
      </trkpt>
      <trkpt lat="43.20766" lon="6.14142">
        <ele>119.8214111</ele>
        <time>2011-07-03T08:02:25Z</time>
      </trkpt>
      <trkpt lat="43.20793" lon="6.1413">
        <ele>113.0922852</ele>
        <time>2011-07-03T08:02:55Z</time>
      </trkpt>
      <trkpt lat="43.2078" lon="6.14057">
        <ele>100.5950928</ele>
        <time>2011-07-03T08:03:25Z</time>
      </trkpt>
      <trkpt lat="43.20699" lon="6.1393">
        <ele>91.4625244</ele>
        <time>2011-07-03T08:03:55Z</time>
      </trkpt>
      <trkpt lat="43.20642" lon="6.1387">
        <ele>102.0371094</ele>
        <time>2011-07-03T08:04:25Z</time>
      </trkpt>
      <trkpt lat="43.20638" lon="6.13853">
        <ele>102.0371094</ele>
        <time>2011-07-03T08:04:55Z</time>
      </trkpt>
      <trkpt lat="43.20643" lon="6.13839">
        <ele>93.8658447</ele>
        <time>2011-07-03T08:05:25Z</time>
      </trkpt>
      <trkpt lat="43.20645" lon="6.13834">
        <ele>92.4239502</ele>
        <time>2011-07-03T08:05:55Z</time>
      </trkpt>
      <trkpt lat="43.20654" lon="6.13832">
        <ele>90.9819336</ele>
        <time>2011-07-03T08:06:25Z</time>
      </trkpt>
      <trkpt lat="43.20655" lon="6.13776">
        <ele>86.6560059</ele>
        <time>2011-07-03T08:06:55Z</time>
      </trkpt>
      <trkpt lat="43.20668" lon="6.13705">
        <ele>69.3522949</ele>
        <time>2011-07-03T08:07:25Z</time>
      </trkpt>
      <trkpt lat="43.20669" lon="6.13706">
        <ele>68.871582</ele>
        <time>2011-07-03T08:07:55Z</time>
      </trkpt>
      <trkpt lat="43.20669" lon="6.13705">
        <ele>67.4296875</ele>
        <time>2011-07-03T08:08:25Z</time>
      </trkpt>
      <trkpt lat="43.20669" lon="6.13705">
        <ele>67.4296875</ele>
        <time>2011-07-03T08:08:55Z</time>
      </trkpt>
      <trkpt lat="43.20669" lon="6.13705">
        <ele>65.9876709</ele>
        <time>2011-07-03T08:09:25Z</time>
      </trkpt>
      <trkpt lat="43.20669" lon="6.13705">
        <ele>65.9876709</ele>
        <time>2011-07-03T08:09:55Z</time>
      </trkpt>
      <trkpt lat="43.20669" lon="6.13705">
        <ele>65.5070801</ele>
        <time>2011-07-03T08:10:25Z</time>
      </trkpt>
      <trkpt lat="43.20661" lon="6.13709">
        <ele>65.5070801</ele>
        <time>2011-07-03T08:10:55Z</time>
      </trkpt>
      <trkpt lat="43.20619" lon="6.13717">
        <ele>73.6782227</ele>
        <time>2011-07-03T08:11:25Z</time>
      </trkpt>
      <trkpt lat="43.20573" lon="6.13744">
        <ele>83.2913818</ele>
        <time>2011-07-03T08:11:55Z</time>
      </trkpt>
      <trkpt lat="43.20556" lon="6.138">
        <ele>86.6560059</ele>
        <time>2011-07-03T08:12:25Z</time>
      </trkpt>
      <trkpt lat="43.20529" lon="6.13793">
        <ele>91.9432373</ele>
        <time>2011-07-03T08:12:55Z</time>
      </trkpt>
      <trkpt lat="43.20484" lon="6.13795">
        <ele>101.5563965</ele>
        <time>2011-07-03T08:13:25Z</time>
      </trkpt>
      <trkpt lat="43.20429" lon="6.13806">
        <ele>110.6888428</ele>
        <time>2011-07-03T08:13:55Z</time>
      </trkpt>
      <trkpt lat="43.20382" lon="6.13849">
        <ele>110.208252</ele>
        <time>2011-07-03T08:14:25Z</time>
      </trkpt>
      <trkpt lat="43.20415" lon="6.13891">
        <ele>105.4017334</ele>
        <time>2011-07-03T08:14:55Z</time>
      </trkpt>
      <trkpt lat="43.20456" lon="6.13916">
        <ele>103.4790039</ele>
        <time>2011-07-03T08:15:25Z</time>
      </trkpt>
      <trkpt lat="43.20498" lon="6.13957">
        <ele>105.8824463</ele>
        <time>2011-07-03T08:15:55Z</time>
      </trkpt>
      <trkpt lat="43.20542" lon="6.13992">
        <ele>106.8436279</ele>
        <time>2011-07-03T08:16:25Z</time>
      </trkpt>
      <trkpt lat="43.20584" lon="6.14032">
        <ele>110.6888428</ele>
        <time>2011-07-03T08:16:55Z</time>
      </trkpt>
      <trkpt lat="43.20618" lon="6.14079">
        <ele>115.9761963</ele>
        <time>2011-07-03T08:17:25Z</time>
      </trkpt>
      <trkpt lat="43.2062" lon="6.14145">
        <ele>119.8214111</ele>
        <time>2011-07-03T08:17:55Z</time>
      </trkpt>
      <trkpt lat="43.20632" lon="6.1421">
        <ele>121.7441406</ele>
        <time>2011-07-03T08:18:25Z</time>
      </trkpt>
      <trkpt lat="43.20644" lon="6.14282">
        <ele>127.0313721</ele>
        <time>2011-07-03T08:18:55Z</time>
      </trkpt>
      <trkpt lat="43.20647" lon="6.1435">
        <ele>131.3572998</ele>
        <time>2011-07-03T08:19:25Z</time>
      </trkpt>
      <trkpt lat="43.20618" lon="6.144">
        <ele>133.760498</ele>
        <time>2011-07-03T08:19:55Z</time>
      </trkpt>
      <trkpt lat="43.2057" lon="6.14401">
        <ele>140.4898682</ele>
        <time>2011-07-03T08:20:25Z</time>
      </trkpt>
      <trkpt lat="43.20544" lon="6.14443">
        <ele>140.4898682</ele>
        <time>2011-07-03T08:20:55Z</time>
      </trkpt>
      <trkpt lat="43.2059" lon="6.14478">
        <ele>143.3736572</ele>
        <time>2011-07-03T08:21:25Z</time>
      </trkpt>
      <trkpt lat="43.20638" lon="6.14498">
        <ele>144.3352051</ele>
        <time>2011-07-03T08:21:55Z</time>
      </trkpt>
      <trkpt lat="43.20671" lon="6.14549">
        <ele>150.1030273</ele>
        <time>2011-07-03T08:22:25Z</time>
      </trkpt>
      <trkpt lat="43.20712" lon="6.14598">
        <ele>156.3515625</ele>
        <time>2011-07-03T08:22:55Z</time>
      </trkpt>
      <trkpt lat="43.20767" lon="6.14605">
        <ele>160.6774902</ele>
        <time>2011-07-03T08:23:25Z</time>
      </trkpt>
      <trkpt lat="43.20806" lon="6.14654">
        <ele>164.0421143</ele>
        <time>2011-07-03T08:23:55Z</time>
      </trkpt>
      <trkpt lat="43.20818" lon="6.14728">
        <ele>169.8100586</ele>
        <time>2011-07-03T08:24:25Z</time>
      </trkpt>
      <trkpt lat="43.20865" lon="6.14776">
        <ele>173.6552734</ele>
        <time>2011-07-03T08:24:55Z</time>
      </trkpt>
      <trkpt lat="43.20915" lon="6.14827">
        <ele>178.942627</ele>
        <time>2011-07-03T08:25:25Z</time>
      </trkpt>
      <trkpt lat="43.20957" lon="6.1486">
        <ele>180.3845215</ele>
        <time>2011-07-03T08:25:55Z</time>
      </trkpt>
      <trkpt lat="43.20956" lon="6.14861">
        <ele>179.9038086</ele>
        <time>2011-07-03T08:26:25Z</time>
      </trkpt>
      <trkpt lat="43.20956" lon="6.14861">
        <ele>180.3845215</ele>
        <time>2011-07-03T08:26:55Z</time>
      </trkpt>
      <trkpt lat="43.20957" lon="6.1486">
        <ele>179.9038086</ele>
        <time>2011-07-03T08:27:25Z</time>
      </trkpt>
      <trkpt lat="43.20957" lon="6.14861">
        <ele>179.9038086</ele>
        <time>2011-07-03T08:27:55Z</time>
      </trkpt>
      <trkpt lat="43.20958" lon="6.14861">
        <ele>179.9038086</ele>
        <time>2011-07-03T08:28:25Z</time>
      </trkpt>
      <trkpt lat="43.20961" lon="6.1486">
        <ele>180.3845215</ele>
        <time>2011-07-03T08:28:55Z</time>
      </trkpt>
      <trkpt lat="43.20976" lon="6.14847">
        <ele>187.5943604</ele>
        <time>2011-07-03T08:29:25Z</time>
      </trkpt>
      <trkpt lat="43.20985" lon="6.14827">
        <ele>193.3623047</ele>
        <time>2011-07-03T08:29:55Z</time>
      </trkpt>
      <trkpt lat="43.20993" lon="6.14804">
        <ele>197.6882324</ele>
        <time>2011-07-03T08:30:25Z</time>
      </trkpt>
      <trkpt lat="43.21012" lon="6.14794">
        <ele>205.3787842</ele>
        <time>2011-07-03T08:30:55Z</time>
      </trkpt>
      <trkpt lat="43.21007" lon="6.14765">
        <ele>208.7434082</ele>
        <time>2011-07-03T08:31:25Z</time>
      </trkpt>
      <trkpt lat="43.21004" lon="6.14739">
        <ele>214.0306396</ele>
        <time>2011-07-03T08:31:55Z</time>
      </trkpt>
      <trkpt lat="43.20991" lon="6.14718">
        <ele>217.3953857</ele>
        <time>2011-07-03T08:32:25Z</time>
      </trkpt>
      <trkpt lat="43.20989" lon="6.14719">
        <ele>217.8759766</ele>
        <time>2011-07-03T08:32:55Z</time>
      </trkpt>
      <trkpt lat="43.20989" lon="6.14718">
        <ele>217.3953857</ele>
        <time>2011-07-03T08:33:25Z</time>
      </trkpt>
      <trkpt lat="43.20989" lon="6.14719">
        <ele>217.8759766</ele>
        <time>2011-07-03T08:33:55Z</time>
      </trkpt>
      <trkpt lat="43.20988" lon="6.1472">
        <ele>217.8759766</ele>
        <time>2011-07-03T08:34:25Z</time>
      </trkpt>
      <trkpt lat="43.20988" lon="6.14719">
        <ele>217.8759766</ele>
        <time>2011-07-03T08:34:55Z</time>
      </trkpt>
      <trkpt lat="43.20985" lon="6.14674">
        <ele>214.0306396</ele>
        <time>2011-07-03T08:35:25Z</time>
      </trkpt>
      <trkpt lat="43.20954" lon="6.14555">
        <ele>184.7105713</ele>
        <time>2011-07-03T08:35:55Z</time>
      </trkpt>
      <trkpt lat="43.20912" lon="6.14448">
        <ele>168.8487549</ele>
        <time>2011-07-03T08:36:25Z</time>
      </trkpt>
      <trkpt lat="43.2092" lon="6.14433">
        <ele>155.3902588</ele>
        <time>2011-07-03T08:36:55Z</time>
      </trkpt>
      <trkpt lat="43.20902" lon="6.14417">
        <ele>153.9483643</ele>
        <time>2011-07-03T08:37:25Z</time>
      </trkpt>
      <trkpt lat="43.20829" lon="6.14202">
        <ele>127.9925537</ele>
        <time>2011-07-03T08:37:55Z</time>
      </trkpt>
      <trkpt lat="43.20827" lon="6.14082">
        <ele>103.9597168</ele>
        <time>2011-07-03T08:38:25Z</time>
      </trkpt>
      <trkpt lat="43.20826" lon="6.14004">
        <ele>97.2304688</ele>
        <time>2011-07-03T08:38:55Z</time>
      </trkpt>
      <trkpt lat="43.20788" lon="6.13895">
        <ele>80.4074707</ele>
        <time>2011-07-03T08:39:25Z</time>
      </trkpt>
      <trkpt lat="43.20744" lon="6.13794">
        <ele>71.2749023</ele>
        <time>2011-07-03T08:39:55Z</time>
      </trkpt>
      <trkpt lat="43.20721" lon="6.13754">
        <ele>56.3745117</ele>
        <time>2011-07-03T08:40:25Z</time>
      </trkpt>
      <trkpt lat="43.20695" lon="6.13726">
        <ele>51.5678711</ele>
        <time>2011-07-03T08:40:55Z</time>
      </trkpt>
      <trkpt lat="43.20677" lon="6.13719">
        <ele>60.2197266</ele>
        <time>2011-07-03T08:41:25Z</time>
      </trkpt>
      <trkpt lat="43.20647" lon="6.13703">
        <ele>64.0650635</ele>
        <time>2011-07-03T08:41:55Z</time>
      </trkpt>
      <trkpt lat="43.20647" lon="6.13703">
        <ele>64.0650635</ele>
        <time>2011-07-03T08:42:25Z</time>
      </trkpt>
      <trkpt lat="43.20658" lon="6.13704">
        <ele>65.0263672</ele>
        <time>2011-07-03T08:42:55Z</time>
      </trkpt>
      <trkpt lat="43.20658" lon="6.13704">
        <ele>65.0263672</ele>
        <time>2011-07-03T08:43:25Z</time>
      </trkpt>
      <trkpt lat="43.20657" lon="6.13705">
        <ele>65.0263672</ele>
        <time>2011-07-03T08:43:55Z</time>
      </trkpt>
      <trkpt lat="43.20657" lon="6.13705">
        <ele>65.0263672</ele>
        <time>2011-07-03T08:44:25Z</time>
      </trkpt>
      <trkpt lat="43.20658" lon="6.13705">
        <ele>64.0650635</ele>
        <time>2011-07-03T08:44:55Z</time>
      </trkpt>
      <trkpt lat="43.20662" lon="6.13701">
        <ele>64.0650635</ele>
        <time>2011-07-03T08:45:25Z</time>
      </trkpt>
      <trkpt lat="43.20596" lon="6.13641">
        <ele>55.8937988</ele>
        <time>2011-07-03T08:45:55Z</time>
      </trkpt>
      <trkpt lat="43.20691" lon="6.1369">
        <ele>55.4130859</ele>
        <time>2011-07-03T08:46:25Z</time>
      </trkpt>
      <trkpt lat="43.20781" lon="6.13781">
        <ele>54.4517822</ele>
        <time>2011-07-03T08:46:55Z</time>
      </trkpt>
      <trkpt lat="43.20854" lon="6.139">
        <ele>58.77771</ele>
        <time>2011-07-03T08:47:25Z</time>
      </trkpt>
      <trkpt lat="43.20943" lon="6.14021">
        <ele>59.2584229</ele>
        <time>2011-07-03T08:47:55Z</time>
      </trkpt>
      <trkpt lat="43.21066" lon="6.14102">
        <ele>64.0650635</ele>
        <time>2011-07-03T08:48:25Z</time>
      </trkpt>
      <trkpt lat="43.21191" lon="6.14156">
        <ele>65.5070801</ele>
        <time>2011-07-03T08:48:55Z</time>
      </trkpt>
      <trkpt lat="43.21313" lon="6.14215">
        <ele>65.5070801</ele>
        <time>2011-07-03T08:49:25Z</time>
      </trkpt>
      <trkpt lat="43.21422" lon="6.14286">
        <ele>67.4296875</ele>
        <time>2011-07-03T08:49:55Z</time>
      </trkpt>
      <trkpt lat="43.21543" lon="6.14337">
        <ele>67.4296875</ele>
        <time>2011-07-03T08:50:25Z</time>
      </trkpt>
      <trkpt lat="43.21663" lon="6.14377">
        <ele>63.5843506</ele>
        <time>2011-07-03T08:50:55Z</time>
      </trkpt>
      <trkpt lat="43.21801" lon="6.14425">
        <ele>61.6617432</ele>
        <time>2011-07-03T08:51:25Z</time>
      </trkpt>
      <trkpt lat="43.21945" lon="6.14473">
        <ele>62.6229248</ele>
        <time>2011-07-03T08:51:55Z</time>
      </trkpt>
      <trkpt lat="43.22032" lon="6.14538">
        <ele>66.4682617</ele>
        <time>2011-07-03T08:52:25Z</time>
      </trkpt>
    </trkseg>
  </trk>
</gpx>